| time (UTC) | temp F | wind direction | speed MPH | gust MPH | rain 1hr in | rain 24hr in | rain mn in | humidity % | barometer mb |
| 20260507144033 | 57 | 249 | 6.0 | 17.0 | 0.00 | 0.16 | 0.16 | 53 | 1009.5 |
| 20260507143533 | 57 | 129 | 7.0 | 16.0 | 0.00 | 0.16 | 0.16 | 52 | 1008.2 |
| 20260507143035 | 57 | 177 | 4.0 | 19.0 | 0.00 | 0.16 | 0.16 | 53 | 1008.7 |
| 20260507142531 | 57 | 228 | 6.0 | 17.0 | 0.00 | 0.16 | 0.16 | 53 | 1008.7 |
| 20260507142032 | 58 | 192 | 7.0 | 17.0 | 0.01 | 0.16 | 0.16 | 53 | 1008.3 |
| 20260507141531 | 58 | 222 | 8.0 | 19.0 | 0.04 | 0.16 | 0.16 | 53 | 1007.8 |
| 20260507141031 | 58 | 156 | 8.0 | 21.0 | 0.04 | 0.16 | 0.16 | 52 | 1008.0 |
| 20260507140532 | 58 | 166 | 10.0 | 21.0 | 0.04 | 0.16 | 0.16 | 52 | 1007.5 |
| 20260507140029 | 58 | 173 | 10.0 | 27.0 | 0.04 | 0.16 | 0.16 | 53 | 1007.7 |
| 20260507135030 | 58 | 149 | 10.0 | 20.0 | 0.04 | 0.16 | 0.16 | 53 | 1008.2 |
| 20260507134531 | 57 | 166 | 10.0 | 19.0 | 0.04 | 0.16 | 0.16 | 53 | 1008.5 |
| 20260507134028 | 57 | 149 | 10.0 | 19.0 | 0.04 | 0.16 | 0.16 | 56 | 1008.8 |
| 20260507133527 | 56 | 187 | 9.0 | 16.0 | 0.04 | 0.16 | 0.16 | 59 | 1009.2 |
| 20260507133027 | 56 | 144 | 9.0 | 16.0 | 0.04 | 0.16 | 0.16 | 59 | 1009.5 |
| 20260507132524 | 57 | 255 | 7.0 | 11.0 | 0.04 | 0.16 | 0.16 | 57 | 1010.2 |
| 20260507132023 | 58 | 156 | 4.0 | 14.0 | 0.03 | 0.15 | 0.15 | 54 | 1010.7 |
| 20260507131530 | 60 | 173 | 6.0 | 16.0 | 0.01 | 0.13 | 0.13 | 48 | 1010.1 |
| 20260507131022 | 61 | 150 | 5.0 | 16.0 | 0.00 | 0.12 | 0.12 | 44 | 1010.8 |
| 20260507130521 | 61 | 276 | 8.0 | 16.0 | 0.00 | 0.12 | 0.12 | 45 | 1011.5 |
| 20260507130018 | 61 | 236 | 5.0 | 14.0 | 0.00 | 0.12 | 0.12 | 45 | 1009.6 |
| 20260507125016 | 61 | 170 | 11.0 | 21.0 | 0.00 | 0.12 | 0.12 | 45 | 1006.5 |
| 20260507124514 | 61 | 147 | 11.0 | 21.0 | 0.00 | 0.12 | 0.12 | 44 | 1006.2 |
| 20260507124016 | 62 | 170 | 10.0 | 25.0 | 0.00 | 0.12 | 0.12 | 44 | 1006.3 |
| 20260507123513 | 62 | 171 | 13.0 | 22.0 | 0.00 | 0.12 | 0.12 | 45 | 1006.4 |
| 20260507123012 | 62 | 160 | 10.0 | 21.0 | 0.00 | 0.12 | 0.12 | 46 | 1006.4 |
| 20260507122510 | 62 | 194 | 7.0 | 20.0 | 0.00 | 0.12 | 0.12 | 47 | 1006.8 |
| 20260507122010 | 62 | 172 | 7.0 | 18.0 | 0.00 | 0.12 | 0.12 | 48 | 1006.3 |
| 20260507121508 | 63 | 196 | 9.0 | 18.0 | 0.00 | 0.12 | 0.12 | 49 | 1006.0 |
| 20260507121007 | 63 | 170 | 7.0 | 17.0 | 0.00 | 0.12 | 0.12 | 50 | 1005.8 |
| 20260507120505 | 63 | 168 | 7.0 | 17.0 | 0.00 | 0.12 | 0.12 | 55 | 1005.8 |
| 20260507120013 | 63 | 148 | 7.0 | 13.0 | 0.00 | 0.12 | 0.12 | 58 | 1005.3 |
| 20260507115002 | 63 | 154 | 8.0 | 15.0 | 0.00 | 0.12 | 0.12 | 57 | 1005.0 |
| 20260507114502 | 63 | 158 | 7.0 | 15.0 | 0.00 | 0.12 | 0.12 | 57 | 1004.9 |
| 20260507114001 | 63 | 149 | 7.0 | 17.0 | 0.00 | 0.12 | 0.12 | 57 | 1004.8 |
| 20260507113500 | 63 | 165 | 8.0 | 18.0 | 0.00 | 0.12 | 0.12 | 58 | 1004.9 |
| 20260507113102 | 63 | 163 | 10.0 | 18.0 | 0.00 | 0.12 | 0.12 | 58 | 1004.7 |
| 20260507112602 | 63 | 163 | 6.0 | 17.0 | 0.00 | 0.12 | 0.12 | 59 | 1004.7 |
| 20260507112101 | 63 | 138 | 11.0 | 18.0 | 0.00 | 0.12 | 0.12 | 59 | 1004.5 |
| 20260507111606 | 63 | 144 | 9.0 | 21.0 | 0.00 | 0.12 | 0.12 | 59 | 1004.3 |
| 20260507111056 | 63 | 158 | 10.0 | 21.0 | 0.00 | 0.12 | 0.12 | 59 | 1004.0 |
| 20260507110556 | 64 | 156 | 10.0 | 20.0 | 0.00 | 0.12 | 0.12 | 60 | 1004.0 |
| 20260507105055 | 64 | 136 | 9.0 | 26.0 | 0.00 | 0.12 | 0.12 | 61 | 1003.6 |
| 20260507104554 | 64 | 253 | 13.0 | 20.0 | 0.00 | 0.12 | 0.12 | 61 | 1003.4 |
| 20260507104054 | 64 | 168 | 9.0 | 20.0 | 0.00 | 0.12 | 0.12 | 62 | 1003.2 |
| 20260507103553 | 64 | 142 | 10.0 | 22.0 | 0.00 | 0.12 | 0.12 | 61 | 1003.2 |
| 20260507103053 | 64 | 153 | 11.0 | 24.0 | 0.00 | 0.12 | 0.12 | 61 | 1003.1 |
| 20260507102552 | 64 | 156 | 12.0 | 24.0 | 0.00 | 0.12 | 0.12 | 61 | 1002.8 |
| 20260507102051 | 64 | 149 | 8.0 | 28.0 | 0.00 | 0.12 | 0.12 | 62 | 1002.9 |
| 20260507101602 | 64 | 156 | 14.0 | 28.0 | 0.00 | 0.12 | 0.12 | 62 | 1003.0 |
| 20260507101050 | 64 | 162 | 12.0 | 26.0 | 0.00 | 0.12 | 0.12 | 63 | 1002.6 |
| 20260507100549 | 64 | 182 | 10.0 | 23.0 | 0.00 | 0.12 | 0.12 | 65 | 1002.9 |
| 20260507100048 | 64 | 175 | 8.0 | 21.0 | 0.00 | 0.12 | 0.12 | 67 | 1002.7 |
| 20260507095046 | 64 | 119 | 10.0 | 19.0 | 0.00 | 0.12 | 0.12 | 69 | 1002.6 |
| 20260507094546 | 64 | 157 | 6.0 | 18.0 | 0.00 | 0.12 | 0.12 | 70 | 1002.6 |
| 20260507094043 | 63 | 198 | 7.0 | 18.0 | 0.00 | 0.12 | 0.12 | 70 | 1002.7 |
| 20260507093543 | 63 | 158 | 9.0 | 21.0 | 0.00 | 0.12 | 0.12 | 70 | 1002.8 |
| 20260507093049 | 63 | 152 | 9.0 | 19.0 | 0.01 | 0.12 | 0.12 | 70 | 1002.9 |
| 20260507092542 | 63 | 135 | 8.0 | 16.0 | 0.08 | 0.12 | 0.12 | 70 | 1003.0 |
| 20260507092040 | 63 | 164 | 6.0 | 16.0 | 0.10 | 0.12 | 0.12 | 70 | 1003.2 |
| 20260507091546 | 63 | 133 | 6.0 | 14.0 | 0.11 | 0.12 | 0.12 | 70 | 1002.9 |
| 20260507091040 | 63 | 161 | 7.0 | 14.0 | 0.11 | 0.12 | 0.12 | 70 | 1002.8 |
| 20260507090538 | 64 | 154 | 6.0 | 12.0 | 0.11 | 0.12 | 0.12 | 70 | 1002.5 |
| 20260507090039 | 64 | 160 | 6.0 | 12.0 | 0.11 | 0.12 | 0.12 | 70 | 1002.7 |
| 20260507085036 | 64 | 147 | 6.0 | 14.0 | 0.11 | 0.12 | 0.12 | 70 | 1002.2 |
| 20260507084635 | 64 | 156 | 7.0 | 12.0 | 0.11 | 0.12 | 0.12 | 70 | 1002.1 |
| 20260507084035 | 64 | 186 | 6.0 | 13.0 | 0.12 | 0.12 | 0.12 | 69 | 1002.2 |
| 20260507083535 | 64 | 161 | 8.0 | 16.0 | 0.12 | 0.12 | 0.12 | 69 | 1002.5 |
| 20260507083034 | 64 | 155 | 6.0 | 22.0 | 0.12 | 0.12 | 0.12 | 67 | 1002.6 |
| 20260507082533 | 66 | 159 | 12.0 | 22.0 | 0.09 | 0.09 | 0.09 | 57 | 1002.7 |
| 20260507082031 | 66 | 206 | 5.0 | 10.0 | 0.02 | 0.02 | 0.02 | 57 | 1002.8 |
| 20260507081541 | 66 | 201 | 4.0 | 10.0 | 0.01 | 0.01 | 0.01 | 57 | 1002.8 |
| 20260507081028 | 67 | 180 | 1.0 | 10.0 | 0.01 | 0.01 | 0.01 | 57 | 1003.0 |
| 20260507080527 | 67 | 235 | 2.0 | 10.0 | 0.01 | 0.01 | 0.01 | 57 | 1002.4 |
| 20260507080027 | 67 | 235 | 5.0 | 11.0 | 0.01 | 0.01 | 0.01 | 57 | 1001.8 |
| 20260507075029 | 67 | 242 | 6.0 | 13.0 | 0.01 | 0.01 | 0.01 | 57 | 1001.5 |
| 20260507074544 | 68 | 190 | 7.0 | 13.0 | 0.01 | 0.01 | 0.01 | 57 | 1001.6 |
| 20260507074028 | 68 | 148 | 5.0 | 16.0 | 0.00 | 0.00 | 0.00 | 57 | 1001.9 |
| 20260507073523 | 69 | 169 | 9.0 | 16.0 | 0.00 | 0.00 | 0.00 | 56 | 1001.5 |
| 20260507073022 | 69 | 208 | 6.0 | 17.0 | 0.00 | 0.00 | 0.00 | 55 | 1002.2 |
| 20260507072524 | 69 | 193 | 6.0 | 19.0 | 0.00 | 0.00 | 0.00 | 55 | 1001.5 |
| 20260507072020 | 70 | 160 | 5.0 | 16.0 | 0.00 | 0.00 | 0.00 | 54 | 1001.3 |
| 20260507071519 | 70 | 198 | 7.0 | 16.0 | 0.00 | 0.00 | 0.00 | 53 | 1001.3 |
| 20260507071018 | 71 | 169 | 7.0 | 18.0 | 0.00 | 0.00 | 0.00 | 53 | 1001.6 |
| 20260507070519 | 71 | 204 | 8.0 | 15.0 | 0.00 | 0.00 | 0.00 | 52 | 1001.4 |
| 20260507070020 | 71 | 193 | 6.0 | 15.0 | 0.00 | 0.00 | 0.00 | 52 | 1001.5 |
| 20260507065013 | 73 | 172 | 7.0 | 12.0 | 0.00 | 0.00 | 0.00 | 51 | 1001.4 |
| 20260507064511 | 73 | 217 | 4.0 | 11.0 | 0.00 | 0.00 | 0.00 | 51 | 1001.4 |
| 20260507064011 | 73 | 179 | 5.0 | 12.0 | 0.00 | 0.00 | 0.00 | 52 | 1001.4 |
| 20260507063510 | 73 | 172 | 4.0 | 11.0 | 0.00 | 0.00 | 0.00 | 53 | 1001.4 |
| 20260507063018 | 73 | 152 | 4.0 | 8.0 | 0.00 | 0.00 | 0.00 | 56 | 1001.4 |
| 20260507062508 | 73 | 296 | 0.0 | 0.0 | 0.00 | 0.00 | 0.00 | 56 | 1001.0 |
| 20260507062009 | 73 | 296 | 0.0 | 0.0 | 0.00 | 0.00 | 0.00 | 56 | 1000.9 |
| 20260507061509 | 73 | 296 | 0.0 | 0.0 | 0.00 | 0.00 | 0.00 | 56 | 1000.9 |
| 20260507061008 | 73 | 296 | 0.0 | 0.0 | 0.00 | 0.00 | 0.00 | 56 | 1000.9 |
| 20260507060508 | 73 | 296 | 0.0 | 0.0 | 0.00 | 0.00 | 0.00 | 56 | 1000.9 |
| 20260507060008 | 73 | 296 | 0.0 | 0.0 | 0.00 | 0.00 | 0.00 | 57 | 1000.8 |
| 20260507055005 | 73 | 296 | 0.0 | 0.0 | 0.00 | 0.00 | 0.00 | 57 | 1000.9 |
| 20260507054505 | 74 | 297 | 0.0 | 2.0 | 0.00 | 0.00 | 0.00 | 57 | 1000.9 |
| 20260507054005 | 74 | 296 | 0.0 | 2.0 | 0.00 | 0.00 | 0.00 | 57 | 1001.1 |
| 20260507053507 | 74 | 297 | 0.0 | 1.0 | 0.00 | 0.00 | 0.00 | 57 | 1001.2 |
| 20260507053004 | 74 | 296 | 0.0 | 1.0 | 0.00 | 0.00 | 0.00 | 57 | 1001.2 |
| 20260507052503 | 74 | 296 | 0.0 | 0.0 | 0.00 | 0.00 | 0.00 | 57 | 1001.3 |
| 20260507052003 | 74 | 296 | 0.0 | 0.0 | 0.00 | 0.00 | 0.00 | 57 | 1001.5 |
| 20260507051503 | 74 | 297 | 0.0 | 0.0 | 0.00 | 0.00 | 0.00 | 57 | 1001.5 |
| 20260507051003 | 74 | 296 | 0.0 | 1.0 | 0.00 | 0.00 | 0.00 | 57 | 1001.6 |
| 20260507050503 | 74 | 297 | 0.0 | 1.0 | 0.00 | 0.00 | 0.00 | 57 | 1001.5 |
| 20260507050008 | 74 | 296 | 0.0 | 1.0 | 0.00 | 0.00 | 0.00 | 57 | 1001.4 |
| 20260507045003 | 74 | 297 | 0.0 | 1.0 | 0.00 | 0.00 | 0.00 | 58 | 1001.2 |
| 20260507044502 | 74 | 296 | 0.0 | 1.0 | 0.00 | 0.00 | 0.00 | 58 | 1001.3 |
| 20260507044002 | 74 | 296 | 0.0 | 2.0 | 0.00 | 0.00 | 0.00 | 58 | 1001.3 |
| 20260507043501 | 74 | 296 | 0.0 | 2.0 | 0.00 | 0.00 | 0.00 | 58 | 1001.2 |
| 20260507043103 | 74 | 296 | 0.0 | 1.0 | 0.00 | 0.00 | 0.00 | 58 | 1001.3 |
| 20260507043001 | 74 | 296 | 0.0 | 1.0 | 0.00 | 0.00 | 0.00 | 58 | 1001.3 |
| 20260507042502 | 74 | 296 | 0.0 | 1.0 | 0.00 | 0.00 | 0.00 | 58 | 1001.4 |
| 20260507042100 | 74 | 296 | 0.0 | 2.0 | 0.00 | 0.00 | 0.00 | 58 | 1001.5 |
| 20260507041604 | 74 | 296 | 0.0 | 2.0 | 0.00 | 0.00 | 0.00 | 58 | 1001.4 |
| 20260507041103 | 74 | 295 | 0.0 | 2.0 | 0.00 | 0.00 | 0.00 | 58 | 1001.5 |
| 20260507040601 | 75 | 294 | 0.0 | 2.0 | 0.00 | 0.00 | 0.00 | 58 | 1001.3 |
| 20260507040058 | 75 | 294 | 0.0 | 3.0 | 0.00 | 0.00 | 0.00 | 58 | 1001.3 |
| 20260507035658 | 75 | 294 | 0.0 | 3.0 | 0.00 | 0.00 | 0.00 | 58 | 1001.5 |
| 20260507035058 | 75 | 293 | 0.0 | 2.0 | 0.00 | 0.00 | 0.00 | 58 | 1001.6 |
| 20260507034601 | 75 | 293 | 0.0 | 2.0 | 0.00 | 0.00 | 0.00 | 58 | 1001.7 |
| 20260507034056 | 75 | 293 | 0.0 | 1.0 | 0.00 | 0.00 | 0.00 | 58 | 1001.7 |
| 20260507033558 | 75 | 293 | 0.0 | 1.0 | 0.00 | 0.00 | 0.00 | 58 | 1001.8 |
| 20260507033104 | 75 | 293 | 0.0 | 1.0 | 0.00 | 0.00 | 0.00 | 58 | 1001.9 |
| 20260507032557 | 75 | 293 | 0.0 | 1.0 | 0.00 | 0.00 | 0.00 | 58 | 1002.0 |
| 20260507032056 | 75 | 293 | 0.0 | 3.0 | 0.00 | 0.00 | 0.00 | 58 | 1002.0 |
| 20260507031606 | 75 | 293 | 0.0 | 3.0 | 0.00 | 0.00 | 0.00 | 58 | 1002.0 |
| 20260507031056 | 75 | 274 | 0.0 | 2.0 | 0.00 | 0.00 | 0.00 | 58 | 1001.9 |
| 20260507030555 | 75 | 329 | 0.0 | 1.0 | 0.00 | 0.00 | 0.00 | 58 | 1001.9 |
| 20260507030057 | 75 | 329 | 0.0 | 1.0 | 0.00 | 0.00 | 0.00 | 58 | 1002.1 |
| 20260507025653 | 75 | 329 | 0.0 | 1.0 | 0.00 | 0.00 | 0.00 | 58 | 1002.1 |
| 20260507025055 | 75 | 329 | 0.0 | 0.0 | 0.00 | 0.00 | 0.00 | 58 | 1002.1 |
| 20260507024628 | 75 | 329 | 0.0 | 1.0 | 0.00 | 0.00 | 0.00 | 58 | 1002.1 |
| 20260507024054 | 75 | 329 | 0.0 | 1.0 | 0.00 | 0.00 | 0.00 | 58 | 1002.1 |
| 20260507023103 | 75 | 329 | 0.0 | 1.0 | 0.00 | 0.00 | 0.00 | 58 | 1002.1 |
| 20260507022553 | 75 | 329 | 0.0 | 2.0 | 0.00 | 0.00 | 0.00 | 58 | 1002.1 |
| 20260507022054 | 75 | 329 | 0.0 | 2.0 | 0.00 | 0.00 | 0.00 | 58 | 1002.1 |
| 20260507021553 | 76 | 291 | 0.0 | 4.0 | 0.00 | 0.00 | 0.00 | 58 | 1002.0 |
| 20260507021057 | 76 | 46 | 1.0 | 5.0 | 0.00 | 0.00 | 0.00 | 57 | 1002.0 |
| 20260507020553 | 76 | 335 | 0.0 | 5.0 | 0.00 | 0.00 | 0.00 | 57 | 1001.9 |
| 20260507020056 | 76 | 284 | 0.0 | 4.0 | 0.00 | 0.00 | 0.00 | 57 | 1001.9 |
| 20260507015652 | 76 | 357 | 1.0 | 5.0 | 0.00 | 0.00 | 0.00 | 57 | 1001.7 |
| 20260507015054 | 76 | 326 | 2.0 | 6.0 | 0.00 | 0.00 | 0.00 | 57 | 1001.8 |
| 20260507014603 | 76 | 24 | 1.0 | 6.0 | 0.00 | 0.00 | 0.00 | 57 | 1001.7 |
| 20260507014056 | 76 | 23 | 1.0 | 6.0 | 0.00 | 0.00 | 0.00 | 57 | 1001.5 |
| 20260507013556 | 76 | 328 | 1.0 | 7.0 | 0.00 | 0.00 | 0.00 | 57 | 1001.6 |
| 20260507013054 | 76 | 348 | 3.0 | 7.0 | 0.00 | 0.00 | 0.00 | 57 | 1001.5 |
| 20260507012555 | 76 | 308 | 3.0 | 10.0 | 0.00 | 0.00 | 0.00 | 57 | 1001.6 |
| 20260507012056 | 76 | 38 | 3.0 | 10.0 | 0.00 | 0.00 | 0.00 | 56 | 1001.6 |
| 20260507011554 | 76 | 347 | 2.0 | 8.0 | 0.00 | 0.00 | 0.00 | 56 | 1001.5 |
| 20260507011054 | 76 | 343 | 2.0 | 8.0 | 0.00 | 0.00 | 0.00 | 56 | 1001.6 |
| 20260507011011 | 76 | 33 | 3.0 | 8.0 | 0.00 | 0.00 | 0.00 | 56 | 1001.6 |
| 20260507010651 | 76 | 359 | 3.0 | 13.0 | 0.00 | 0.00 | 0.00 | 56 | 1001.5 |
| 20260507010051 | 76 | 21 | 4.0 | 13.0 | 0.00 | 0.00 | 0.00 | 56 | 1001.4 |
| 20260507005653 | 76 | 350 | 4.0 | 9.0 | 0.00 | 0.00 | 0.00 | 57 | 1001.6 |
| 20260507005017 | 76 | 352 | 4.0 | 9.0 | 0.00 | 0.00 | 0.00 | 57 | 1001.5 |
| 20260507004518 | 76 | 11 | 3.0 | 8.0 | 0.00 | 0.00 | 0.00 | 57 | 1001.5 |
| 20260507004018 | 77 | 61 | 2.0 | 6.0 | 0.00 | 0.00 | 0.00 | 56 | 1001.4 |
| 20260507003515 | 77 | 29 | 3.0 | 6.0 | 0.00 | 0.00 | 0.00 | 56 | 1001.5 |
| 20260507003013 | 77 | 25 | 2.0 | 6.0 | 0.00 | 0.00 | 0.00 | 56 | 1001.5 |
| 20260507002513 | 77 | 33 | 0.0 | 6.0 | 0.00 | 0.00 | 0.00 | 56 | 1001.5 |
| 20260507002013 | 77 | 42 | 0.0 | 7.0 | 0.00 | 0.00 | 0.00 | 56 | 1001.5 |
| 20260507001521 | 77 | 27 | 3.0 | 7.0 | 0.00 | 0.00 | 0.00 | 56 | 1001.3 |
| 20260507001017 | 77 | 359 | 3.0 | 8.0 | 0.00 | 0.00 | 0.00 | 56 | 1001.1 |
| 20260507000512 | 77 | 49 | 3.0 | 10.0 | 0.00 | 0.00 | 0.00 | 56 | 1001.1 |
| 20260507000016 | 77 | 347 | 2.0 | 10.0 | 0.00 | 0.00 | 0.00 | 55 | 1001.1 |
| 20260506235050 | 78 | 352 | 3.0 | 9.0 | 0.00 | 0.00 | 0.00 | 55 | 1000.8 |
| 20260506234547 | 78 | 49 | 4.0 | 9.0 | 0.00 | 0.00 | 0.00 | 55 | 1000.7 |
| 20260506234047 | 78 | 73 | 3.0 | 10.0 | 0.00 | 0.00 | 0.00 | 54 | 1000.8 |
| 20260506233547 | 78 | 333 | 5.0 | 10.0 | 0.00 | 0.00 | 0.00 | 54 | 1000.8 |
| 20260506233100 | 78 | 360 | 5.0 | 11.0 | 0.00 | 0.00 | 0.00 | 54 | 1000.8 |
| 20260506232546 | 79 | 5 | 3.0 | 10.0 | 0.00 | 0.00 | 0.00 | 54 | 1001.1 |
| 20260506232046 | 79 | 333 | 4.0 | 10.0 | 0.00 | 0.00 | 0.00 | 53 | 1001.1 |
| 20260506231545 | 79 | 27 | 4.0 | 9.0 | 0.00 | 0.00 | 0.00 | 53 | 1001.0 |
| 20260506231045 | 79 | 345 | 4.0 | 9.0 | 0.00 | 0.00 | 0.00 | 52 | 1001.0 |
| 20260506230547 | 79 | 36 | 3.0 | 12.0 | 0.00 | 0.00 | 0.00 | 52 | 1000.8 |
| 20260506230046 | 80 | 355 | 4.0 | 10.0 | 0.00 | 0.00 | 0.00 | 51 | 1000.9 |
| 20260506225648 | 80 | 320 | 5.0 | 13.0 | 0.00 | 0.00 | 0.00 | 51 | 1001.1 |
| 20260506225044 | 80 | 48 | 4.0 | 10.0 | 0.00 | 0.00 | 0.00 | 50 | 1001.0 |
| 20260506224544 | 80 | 6 | 5.0 | 10.0 | 0.00 | 0.00 | 0.00 | 50 | 1001.2 |
| 20260506224043 | 80 | 55 | 3.0 | 10.0 | 0.00 | 0.00 | 0.00 | 50 | 1001.1 |
| 20260506223543 | 81 | 42 | 3.0 | 10.0 | 0.00 | 0.00 | 0.00 | 50 | 1001.1 |
| 20260506223043 | 81 | 300 | 5.0 | 13.0 | 0.00 | 0.00 | 0.00 | 49 | 1000.8 |
| 20260506222543 | 81 | 320 | 6.0 | 13.0 | 0.00 | 0.00 | 0.00 | 49 | 1000.9 |
| 20260506222043 | 81 | 333 | 5.0 | 15.0 | 0.00 | 0.00 | 0.00 | 49 | 1000.8 |
| 20260506221542 | 82 | 329 | 7.0 | 13.0 | 0.00 | 0.00 | 0.00 | 49 | 1000.9 |
| 20260506221041 | 82 | 44 | 7.0 | 13.0 | 0.00 | 0.00 | 0.00 | 49 | 1000.9 |
| 20260506220542 | 81 | 37 | 4.0 | 10.0 | 0.00 | 0.00 | 0.00 | 49 | 1001.2 |
| 20260506220039 | 82 | 357 | 3.0 | 7.0 | 0.00 | 0.00 | 0.00 | 48 | 1001.4 |
| 20260506215638 | 82 | 8 | 5.0 | 10.0 | 0.00 | 0.00 | 0.00 | 48 | 1001.7 |
| 20260506215039 | 82 | 32 | 3.0 | 10.0 | 0.00 | 0.00 | 0.00 | 48 | 1001.8 |
| 20260506214539 | 82 | 335 | 4.0 | 11.0 | 0.00 | 0.00 | 0.00 | 48 | 1001.7 |
| 20260506214039 | 83 | 300 | 4.0 | 11.0 | 0.00 | 0.00 | 0.00 | 48 | 1001.6 |
| 20260506213538 | 83 | 337 | 2.0 | 10.0 | 0.00 | 0.00 | 0.00 | 48 | 1001.6 |
| 20260506213038 | 83 | 10 | 3.0 | 9.0 | 0.00 | 0.00 | 0.00 | 48 | 1001.7 |
| 20260506212538 | 84 | 295 | 4.0 | 9.0 | 0.00 | 0.00 | 0.00 | 47 | 1001.7 |
| 20260506212038 | 84 | 350 | 4.0 | 7.0 | 0.00 | 0.00 | 0.00 | 47 | 1001.7 |
| 20260506211536 | 84 | 350 | 3.0 | 7.0 | 0.00 | 0.00 | 0.00 | 46 | 1001.8 |
| 20260506211038 | 85 | 305 | 2.0 | 11.0 | 0.00 | 0.00 | 0.00 | 46 | 1002.0 |
| 20260506210536 | 85 | 347 | 3.0 | 11.0 | 0.00 | 0.00 | 0.00 | 45 | 1001.9 |
| 20260506210035 | 86 | 321 | 4.0 | 10.0 | 0.00 | 0.00 | 0.00 | 45 | 1001.9 |
| 20260506205537 | 86 | 30 | 4.0 | 10.0 | 0.00 | 0.00 | 0.00 | 44 | 1001.9 |
| 20260506205037 | 86 | 17 | 3.0 | 10.0 | 0.00 | 0.00 | 0.00 | 44 | 1002.0 |
| 20260506204536 | 86 | 356 | 2.0 | 10.0 | 0.00 | 0.00 | 0.00 | 44 | 1002.0 |
| 20260506204033 | 87 | 314 | 2.0 | 11.0 | 0.00 | 0.00 | 0.00 | 44 | 1002.0 |
| 20260506203534 | 87 | 5 | 4.0 | 11.0 | 0.00 | 0.00 | 0.00 | 44 | 1001.9 |
| 20260506203036 | 87 | 313 | 6.0 | 10.0 | 0.00 | 0.00 | 0.00 | 43 | 1001.9 |
| 20260506202635 | 87 | 346 | 3.0 | 9.0 | 0.00 | 0.00 | 0.00 | 43 | 1002.1 |
| 20260506202035 | 87 | 345 | 4.0 | 10.0 | 0.00 | 0.00 | 0.00 | 43 | 1002.0 |
| 20260506201535 | 87 | 310 | 5.0 | 12.0 | 0.00 | 0.00 | 0.00 | 43 | 1002.0 |
| 20260506201034 | 87 | 349 | 5.0 | 12.0 | 0.00 | 0.00 | 0.00 | 43 | 1002.0 |
| 20260506200534 | 87 | 308 | 3.0 | 15.0 | 0.00 | 0.00 | 0.00 | 43 | 1002.1 |
| 20260506200034 | 87 | 15 | 4.0 | 15.0 | 0.00 | 0.00 | 0.00 | 43 | 1002.1 |
| 20260506195533 | 87 | 302 | 4.0 | 12.0 | 0.00 | 0.00 | 0.00 | 44 | 1002.0 |
| 20260506195037 | 87 | 349 | 6.0 | 12.0 | 0.00 | 0.00 | 0.00 | 44 | 1002.1 |
| 20260506194531 | 86 | 315 | 4.0 | 10.0 | 0.00 | 0.00 | 0.00 | 45 | 1002.2 |
| 20260506194031 | 86 | 15 | 3.0 | 10.0 | 0.00 | 0.00 | 0.00 | 45 | 1002.4 |
| 20260506193530 | 86 | 314 | 3.0 | 9.0 | 0.00 | 0.00 | 0.00 | 44 | 1002.5 |
| 20260506193032 | 86 | 344 | 3.0 | 9.0 | 0.00 | 0.00 | 0.00 | 44 | 1002.5 |
| 20260506192630 | 87 | 343 | 3.0 | 11.0 | 0.00 | 0.00 | 0.00 | 43 | 1002.3 |
| 20260506192027 | 87 | 326 | 5.0 | 11.0 | 0.00 | 0.00 | 0.00 | 43 | 1002.3 |
| 20260506191527 | 87 | 116 | 5.0 | 11.0 | 0.00 | 0.00 | 0.00 | 43 | 1002.3 |
| 20260506191038 | 87 | 349 | 4.0 | 12.0 | 0.00 | 0.00 | 0.00 | 43 | 1002.5 |
| 20260506190524 | 87 | 337 | 6.0 | 14.0 | 0.00 | 0.00 | 0.00 | 43 | 1002.3 |
| 20260506190025 | 87 | 44 | 5.0 | 14.0 | 0.00 | 0.00 | 0.00 | 44 | 1002.4 |
| 20260506185524 | 87 | 356 | 5.0 | 14.0 | 0.00 | 0.00 | 0.00 | 44 | 1002.5 |
| 20260506185023 | 86 | 278 | 3.0 | 14.0 | 0.00 | 0.00 | 0.00 | 44 | 1002.4 |
| 20260506184523 | 86 | 360 | 6.0 | 18.0 | 0.00 | 0.00 | 0.00 | 44 | 1002.6 |
| 20260506184023 | 87 | 345 | 6.0 | 18.0 | 0.00 | 0.00 | 0.00 | 44 | 1002.6 |
| 20260506183523 | 87 | 344 | 6.0 | 14.0 | 0.00 | 0.00 | 0.00 | 43 | 1002.6 |
| 20260506183021 | 87 | 288 | 3.0 | 11.0 | 0.00 | 0.00 | 0.00 | 43 | 1002.6 |
| 20260506182621 | 87 | 36 | 5.0 | 14.0 | 0.00 | 0.00 | 0.00 | 43 | 1002.7 |
| 20260506182022 | 87 | 7 | 3.0 | 14.0 | 0.00 | 0.00 | 0.00 | 44 | 1002.9 |
| 20260506181519 | 87 | 346 | 5.0 | 14.0 | 0.00 | 0.00 | 0.00 | 44 | 1002.8 |
| 20260506181020 | 87 | 345 | 6.0 | 14.0 | 0.00 | 0.00 | 0.00 | 43 | 1002.9 |
| 20260506180519 | 88 | 113 | 5.0 | 15.0 | 0.00 | 0.00 | 0.00 | 42 | 1003.0 |
| 20260506180017 | 87 | 345 | 7.0 | 15.0 | 0.00 | 0.00 | 0.00 | 42 | 1003.1 |
| 20260506175517 | 87 | 33 | 5.0 | 17.0 | 0.00 | 0.00 | 0.00 | 42 | 1003.2 |
| 20260506175019 | 88 | 269 | 5.0 | 14.0 | 0.00 | 0.00 | 0.00 | 42 | 1003.1 |
| 20260506174516 | 87 | 314 | 6.0 | 13.0 | 0.00 | 0.00 | 0.00 | 42 | 1003.2 |
| 20260506174015 | 87 | 35 | 2.0 | 11.0 | 0.00 | 0.00 | 0.00 | 42 | 1003.4 |
| 20260506173515 | 87 | 326 | 5.0 | 13.0 | 0.00 | 0.00 | 0.00 | 43 | 1003.6 |
| 20260506173014 | 87 | 340 | 5.0 | 13.0 | 0.00 | 0.00 | 0.00 | 43 | 1003.7 |
| 20260506172613 | 87 | 2 | 6.0 | 14.0 | 0.00 | 0.00 | 0.00 | 43 | 1004.0 |
| 20260506172013 | 87 | 15 | 6.0 | 14.0 | 0.00 | 0.00 | 0.00 | 43 | 1004.1 |
| 20260506171513 | 86 | 300 | 3.0 | 16.0 | 0.00 | 0.00 | 0.00 | 43 | 1004.2 |
| 20260506171013 | 87 | 296 | 8.0 | 15.0 | 0.00 | 0.00 | 0.00 | 43 | 1004.4 |
| 20260506170513 | 87 | 324 | 5.0 | 10.0 | 0.00 | 0.00 | 0.00 | 43 | 1004.3 |
| 20260506170012 | 87 | 348 | 5.0 | 12.0 | 0.00 | 0.00 | 0.00 | 43 | 1004.3 |
| 20260506165515 | 87 | 335 | 5.0 | 12.0 | 0.00 | 0.00 | 0.00 | 43 | 1004.3 |
| 20260506165011 | 87 | 342 | 5.0 | 12.0 | 0.00 | 0.00 | 0.00 | 44 | 1004.3 |
| 20260506164510 | 87 | 2 | 5.0 | 12.0 | 0.00 | 0.00 | 0.00 | 43 | 1004.4 |
| 20260506164009 | 87 | 21 | 3.0 | 13.0 | 0.00 | 0.00 | 0.00 | 44 | 1004.4 |
| 20260506163508 | 86 | 322 | 4.0 | 13.0 | 0.00 | 0.00 | 0.00 | 44 | 1004.7 |
| 20260506163014 | 86 | 338 | 4.0 | 15.0 | 0.00 | 0.00 | 0.00 | 45 | 1004.7 |
| 20260506162607 | 86 | 352 | 6.0 | 13.0 | 0.00 | 0.00 | 0.00 | 45 | 1004.8 |
| 20260506162005 | 85 | 357 | 3.0 | 12.0 | 0.00 | 0.00 | 0.00 | 46 | 1004.9 |
| 20260506161503 | 85 | 344 | 7.0 | 0.0 | 0.00 | 0.00 | 0.00 | 46 | 1004.9 |
| 20260506161000 | 85 | 45 | 5.0 | 12.0 | 0.00 | 0.00 | 0.00 | 46 | 1005.0 |
| 20260506160559 | 85 | 338 | 7.0 | 13.0 | 0.00 | 0.00 | 0.00 | 46 | 1005.0 |
| 20260506160059 | 85 | 72 | 5.0 | 14.0 | 0.00 | 0.00 | 0.00 | 46 | 1005.1 |
| 20260506155557 | 85 | 16 | 3.0 | 14.0 | 0.00 | 0.00 | 0.00 | 46 | 1005.2 |
| 20260506155057 | 84 | 345 | 4.0 | 13.0 | 0.00 | 0.00 | 0.00 | 46 | 1005.2 |
| 20260506154610 | 84 | 354 | 6.0 | 13.0 | 0.00 | 0.00 | 0.00 | 46 | 1005.5 |
| 20260506154056 | 84 | 103 | 5.0 | 14.0 | 0.00 | 0.00 | 0.00 | 46 | 1005.7 |
| 20260506153553 | 84 | 11 | 5.0 | 16.0 | 0.00 | 0.00 | 0.00 | 46 | 1005.7 |
| 20260506153102 | 84 | 312 | 5.0 | 16.0 | 0.00 | 0.00 | 0.00 | 47 | 1005.9 |
| 20260506152551 | 83 | 360 | 6.0 | 12.0 | 0.00 | 0.00 | 0.00 | 47 | 1006.0 |
| 20260506152050 | 83 | 16 | 6.0 | 13.0 | 0.00 | 0.00 | 0.00 | 47 | 1006.0 |
| 20260506151548 | 83 | 326 | 5.0 | 14.0 | 0.00 | 0.00 | 0.00 | 48 | 1006.0 |
| 20260506151046 | 83 | 326 | 6.0 | 15.0 | 0.00 | 0.00 | 0.00 | 49 | 1006.1 |
| 20260506150546 | 82 | 15 | 6.0 | 15.0 | 0.00 | 0.00 | 0.00 | 49 | 1006.2 |
| 20260506150045 | 82 | 27 | 7.0 | 15.0 | 0.00 | 0.00 | 0.00 | 50 | 1006.2 |
| 20260506145544 | 82 | 76 | 8.0 | 15.0 | 0.00 | 0.00 | 0.00 | 50 | 1006.2 |
| 20260506145043 | 82 | 47 | 7.0 | 15.0 | 0.00 | 0.00 | 0.00 | 49 | 1006.3 |
| 20260506144542 | 82 | 3 | 4.0 | 15.0 | 0.00 | 0.00 | 0.00 | 50 | 1006.4 |